Time;durP1;ratioP1;P1;durP2;ratioP2;P2;SDS_P1;SDS_P2;PMS_P1;PMS_P2;Temp;Humidity;BMP_temperature;BMP_pressure;BME280_temperature;BME280_humidity;BME280_pressure;Samples;Min_cycle;Max_cycle;Signal;HPM_P1;HPM_P2
2022/06/23 02:46:44;;;;;;;2.25;0.25;;;17.30;99.90;;;;;;5879251;23;83576;-83
2022/06/23 02:49:47;;;;;;;2.80;0.30;;;17.20;99.90;;;;;;4915573;28;81982;-83
2022/06/23 02:52:50;;;;;;;2.85;0.32;;;17.20;99.90;;;;;;4916595;28;81798;-82
2022/06/23 02:55:37;;;;;;;3.17;0.30;;;17.40;99.90;;;;;;4921425;28;84382;-83
2022/06/23 02:58:14;;;;;;;1.40;0.30;;;17.50;99.90;;;;;;4932295;28;82425;-83
2022/06/23 03:00:42;;;;;;;4.53;0.10;;;17.50;99.90;;;;;;4918536;28;83142;-84
2022/06/23 03:03:37;;;;;;;3.47;0.30;;;17.40;99.90;;;;;;4929224;28;81833;-82
2022/06/23 03:06:28;;;;;;;1.25;0.25;;;17.40;99.90;;;;;;4933626;28;83251;-82
2022/06/23 03:08:57;;;;;;;1.17;0.22;;;17.30;99.90;;;;;;4930275;28;81958;-83
2022/06/23 03:14:37;;;;;;;3.08;0.40;;;17.40;99.90;;;;;;4936192;28;81695;-84
2022/06/23 03:17:20;;;;;;;3.13;0.30;;;17.40;99.90;;;;;;4953402;28;84211;-83
2022/06/23 03:20:13;;;;;;;4.22;0.20;;;17.40;99.90;;;;;;4945571;28;82017;-83
2022/06/23 03:23:12;;;;;;;0.75;0.20;;;17.40;99.90;;;;;;4913373;28;82006;-82
2022/06/23 03:25:55;;;;;;;1.52;0.25;;;17.50;99.90;;;;;;4920051;28;81998;-84
2022/06/23 03:28:30;;;;;;;2.72;0.47;;;17.40;99.90;;;;;;4932242;28;83105;-83
2022/06/23 03:31:28;;;;;;;3.08;0.38;;;17.40;99.90;;;;;;4928413;28;82672;-81
2022/06/23 03:34:00;;;;;;;2.83;0.30;;;17.50;99.90;;;;;;4921549;28;81773;-82
2022/06/23 03:36:32;;;;;;;1.20;0.20;;;17.50;99.90;;;;;;4948418;28;81802;-82
2022/06/23 03:42:14;;;;;;;2.40;0.30;;;17.50;99.90;;;;;;4936248;28;81720;-83
2022/06/23 03:45:04;;;;;;;5.25;0.28;;;17.60;99.90;;;;;;4953312;28;81859;-83
2022/06/23 03:47:35;;;;;;;2.72;0.60;;;17.60;99.90;;;;;;4932992;28;82711;-83
2022/06/23 03:50:20;;;;;;;1.58;0.20;;;17.60;99.90;;;;;;4921404;28;82168;-83
2022/06/23 03:52:53;;;;;;;3.72;0.25;;;17.80;99.90;;;;;;4940411;28;82556;-82
2022/06/23 03:55:26;;;;;;;1.77;0.32;;;18.00;99.90;;;;;;4930319;28;82944;-83
2022/06/23 03:58:00;;;;;;;4.15;0.20;;;18.20;99.90;;;;;;4932878;28;82031;-81
2022/06/23 04:00:36;;;;;;;8.98;0.50;;;18.50;99.90;;;;;;4923097;28;82251;-86
2022/06/23 04:03:14;;;;;;;6.65;0.28;;;18.90;99.90;;;;;;4933599;28;81984;-84
2022/06/23 04:05:55;;;;;;;1.58;0.30;;;19.00;99.80;;;;;;4928816;28;81542;-85
2022/06/23 04:08:34;;;;;;;2.58;0.20;;;19.20;98.90;;;;;;4936762;28;83354;-86
2022/06/23 04:14:03;;;;;;;2.78;0.40;;;19.10;97.70;;;;;;4928839;28;81347;-85
2022/06/23 04:16:33;;;;;;;1.77;0.10;;;19.30;97.80;;;;;;4926547;28;81987;-85
2022/06/23 04:19:23;;;;;;;3.15;0.40;;;19.60;96.40;;;;;;4930987;28;83306;-85
2022/06/23 04:21:57;;;;;;;3.45;0.47;;;19.60;96.20;;;;;;4926859;28;82917;-85
2022/06/23 04:24:26;;;;;;;3.38;0.38;;;19.40;95.40;;;;;;4926030;28;83690;-86
2022/06/23 04:26:56;;;;;;;5.20;0.50;;;19.20;96.10;;;;;;4938657;28;81543;-85
2022/06/23 04:29:36;;;;;;;2.08;0.30;;;19.60;95.70;;;;;;4936756;28;81888;-86
2022/06/23 04:32:09;;;;;;;3.28;0.22;;;19.90;94.50;;;;;;4940389;28;82237;-87
2022/06/23 04:34:57;;;;;;;1.52;0.63;;;19.90;93.30;;;;;;4938366;28;81934;-87
2022/06/23 04:37:45;;;;;;;5.40;0.73;;;20.20;92.80;;;;;;4933082;28;81953;-86
2022/06/23 04:40:53;;;;;;;3.95;0.40;;;20.70;91.40;;;;;;4934586;28;82088;-86
2022/06/23 04:43:19;;;;;;;3.33;0.32;;;21.90;89.80;;;;;;4855659;29;84022;-86
2022/06/23 04:45:56;;;;;;;2.20;0.40;;;22.40;84.70;;;;;;4851353;29;82949;-87
2022/06/23 04:48:49;;;;;;;6.05;1.02;;;23.30;80.80;;;;;;4898726;28;82733;-86
2022/06/23 04:51:30;;;;;;;2.38;0.73;;;23.90;77.90;;;;;;4933279;28;82190;-86
2022/06/23 04:54:10;;;;;;;2.38;0.60;;;24.00;75.80;;;;;;4931392;28;83406;-86
2022/06/23 04:57:01;;;;;;;1.40;0.95;;;24.50;72.60;;;;;;4925013;28;82348;-84
2022/06/23 04:59:51;;;;;;;8.30;0.68;;;24.60;73.00;;;;;;4928495;28;82250;-84
2022/06/23 05:02:37;;;;;;;1.75;0.63;;;25.60;70.70;;;;;;4932979;28;81902;-83
2022/06/23 05:05:22;;;;;;;1.77;1.00;;;26.60;65.50;;;;;;4933619;28;83056;-84
2022/06/23 05:08:07;;;;;;;2.47;0.90;;;27.20;63.60;;;;;;4925008;28;81997;-84
2022/06/23 05:10:47;;;;;;;3.28;1.02;;;27.00;62.70;;;;;;4929477;28;81855;-83
2022/06/23 05:13:19;;;;;;;2.55;0.90;;;26.40;64.20;;;;;;4933672;28;84336;-85
2022/06/23 05:16:05;;;;;;;3.45;1.00;;;27.30;62.70;;;;;;4932098;28;82775;-84
2022/06/23 05:18:39;;;;;;;2.33;1.23;;;28.00;59.80;;;;;;4927301;28;82090;-84
2022/06/23 05:21:09;;;;;;;2.58;0.88;;;27.40;60.60;;;;;;4927152;28;81822;-84
2022/06/23 05:23:42;;;;;;;2.67;1.30;;;27.90;60.10;;;;;;4928716;28;81824;-84
2022/06/23 05:26:24;;;;;;;3.72;1.10;;;28.60;57.90;;;;;;4930481;28;82451;-84
2022/06/23 05:28:57;;;;;;;2.30;1.00;;;29.10;56.70;;;;;;4924976;28;82076;-84
2022/06/23 05:31:29;;;;;;;4.78;1.38;;;29.30;56.20;;;;;;4934828;28;81944;-84
2022/06/23 05:33:59;;;;;;;4.25;1.27;;;30.10;54.90;;;;;;4936785;28;82201;-81
2022/06/23 05:36:29;;;;;;;4.60;1.63;;;31.00;54.60;;;;;;4933636;28;81924;-83
2022/06/23 05:39:11;;;;;;;3.42;1.17;;;32.00;52.10;;;;;;4936457;28;82753;-83
2022/06/23 05:41:44;;;;;;;2.80;1.60;;;32.20;51.20;;;;;;4935779;28;82870;-83
2022/06/23 05:44:27;;;;;;;2.45;1.33;;;32.00;51.00;;;;;;4942168;28;81820;-82
2022/06/23 05:46:57;;;;;;;2.63;1.35;;;32.50;50.20;;;;;;4932436;28;82189;-84
2022/06/23 05:49:27;;;;;;;3.55;1.85;;;32.70;49.30;;;;;;4938252;28;82226;-83
2022/06/23 05:52:07;;;;;;;4.78;1.42;;;33.40;48.00;;;;;;4938330;28;81560;-82
2022/06/23 05:54:56;;;;;;;2.42;1.67;;;33.90;46.10;;;;;;4938019;28;83013;-82
2022/06/23 05:57:33;;;;;;;2.53;1.73;;;33.20;47.90;;;;;;4923304;28;81863;-81
2022/06/23 06:00:21;;;;;;;2.45;2.22;;;33.30;47.20;;;;;;4938925;28;82308;-82
2022/06/23 06:02:56;;;;;;;7.25;2.05;;;33.30;47.80;;;;;;4941884;28;81962;-82
2022/06/23 06:05:35;;;;;;;2.92;1.75;;;34.50;45.00;;;;;;4931832;28;81962;-86
2022/06/23 06:08:07;;;;;;;2.33;2.13;;;34.60;43.70;;;;;;4924191;28;83023;-85
2022/06/23 06:10:34;;;;;;;2.83;1.83;;;34.60;44.30;;;;;;4926719;28;85675;-86
2022/06/23 06:13:02;;;;;;;2.10;1.90;;;35.00;43.40;;;;;;4929901;28;81867;-85
2022/06/23 06:15:40;;;;;;;3.38;1.83;;;34.30;44.10;;;;;;4928054;28;81932;-84
2022/06/23 06:18:18;;;;;;;3.72;2.38;;;34.80;44.90;;;;;;4931263;28;82608;-84
2022/06/23 06:20:44;;;;;;;6.20;2.00;;;36.00;43.80;;;;;;4930777;28;81819;-85
2022/06/23 06:23:34;;;;;;;5.75;2.58;;;36.50;41.60;;;;;;4932878;28;82372;-84
2022/06/23 06:26:00;;;;;;;2.45;0.82;;;36.00;42.20;;;;;;4932170;28;81595;-86
2022/06/23 06:28:31;;;;;;;5.95;2.08;;;34.90;43.30;;;;;;4929001;28;82303;-84
2022/06/23 06:31:00;;;;;;;4.38;2.60;;;34.50;44.10;;;;;;4935525;28;82190;-86
2022/06/23 06:33:57;;;;;;;2.50;1.95;;;34.60;44.00;;;;;;4931852;28;82831;-85
2022/06/23 06:36:38;;;;;;;5.43;2.38;;;35.00;43.40;;;;;;4897941;28;81952;-84
2022/06/23 06:39:18;;;;;;;4.70;1.95;;;35.30;42.80;;;;;;4927881;28;84896;-85
2022/06/23 06:41:50;;;;;;;3.35;2.38;;;35.30;43.10;;;;;;4935141;28;82372;-87
2022/06/23 06:44:17;;;;;;;2.47;1.88;;;36.60;41.50;;;;;;4930514;28;82332;-84
2022/06/23 06:46:44;;;;;;;3.50;1.85;;;35.60;43.30;;;;;;4929902;28;82838;-84
2022/06/23 06:49:16;;;;;;;3.22;2.15;;;36.90;41.40;;;;;;4934086;28;83609;-85
2022/06/23 06:51:43;;;;;;;2.80;2.25;;;38.00;39.60;;;;;;4934949;28;82154;-87
2022/06/23 06:54:35;;;;;;;4.25;2.80;;;36.70;41.60;;;;;;4934113;28;81738;-86
2022/06/23 06:57:04;;;;;;;4.25;3.50;;;37.70;40.20;;;;;;4932276;28;82179;-85
2022/06/23 06:59:44;;;;;;;3.97;2.13;;;38.70;38.80;;;;;;4929506;28;83016;-85
2022/06/23 07:02:24;;;;;;;3.88;2.55;;;38.70;38.40;;;;;;4928619;28;83946;-86
2022/06/23 07:04:57;;;;;;;4.10;2.40;;;38.30;38.90;;;;;;4927173;28;82110;-86
2022/06/23 07:07:29;;;;;;;4.30;2.40;;;38.90;38.70;;;;;;4931259;28;82872;-87
2022/06/23 07:10:05;;;;;;;5.88;2.03;;;39.70;38.50;;;;;;4936509;28;82223;-82
2022/06/23 07:13:02;;;;;;;2.85;2.25;;;40.50;37.00;;;;;;4939436;28;83039;-81
2022/06/23 07:15:43;;;;;;;5.57;2.92;;;41.20;36.70;;;;;;4940818;28;82000;-82
2022/06/23 07:18:34;;;;;;;3.13;2.58;;;42.20;36.50;;;;;;4939699;28;82890;-82
2022/06/23 07:21:18;;;;;;;4.85;3.10;;;42.80;35.40;;;;;;4940301;28;81829;-81
2022/06/23 07:23:53;;;;;;;6.70;3.53;;;42.90;33.70;;;;;;4943751;28;81454;-81
2022/06/23 07:26:34;;;;;;;4.90;3.30;;;41.70;34.90;;;;;;4934567;28;82872;-82
2022/06/23 07:29:26;;;;;;;6.20;2.65;;;41.40;37.10;;;;;;4932267;28;81543;-82
2022/06/23 07:32:04;;;;;;;4.85;2.85;;;42.50;35.80;;;;;;4937703;28;82845;-85
2022/06/23 07:34:36;;;;;;;4.57;3.30;;;42.80;35.10;;;;;;4952098;28;81566;-80
2022/06/23 07:37:18;;;;;;;4.68;3.55;;;42.90;36.00;;;;;;4925049;28;81973;-81
2022/06/23 07:39:47;;;;;;;3.40;3.08;;;43.70;35.10;;;;;;4928287;28;82238;-82
2022/06/23 07:42:22;;;;;;;3.05;1.88;;;43.60;35.00;;;;;;4922811;28;82199;-82
2022/06/23 07:45:01;;;;;;;4.13;3.72;;;43.50;34.90;;;;;;4929271;28;81816;-83
2022/06/23 07:47:28;;;;;;;4.30;3.88;;;44.40;34.20;;;;;;4921654;28;82236;-85
2022/06/23 07:49:54;;;;;;;5.65;4.00;;;45.00;33.20;;;;;;4930636;28;82156;-82
2022/06/23 07:52:21;;;;;;;4.13;3.35;;;45.30;33.40;;;;;;4926720;28;83843;-81
2022/06/23 07:54:49;;;;;;;4.25;3.90;;;45.20;32.90;;;;;;4928032;28;83431;-83
2022/06/23 07:57:16;;;;;;;4.82;4.32;;;46.30;32.60;;;;;;4930529;28;82053;-83
2022/06/23 07:59:58;;;;;;;6.30;5.03;;;46.80;31.90;;;;;;4928416;28;82329;-83
2022/06/23 08:02:31;;;;;;;5.32;4.88;;;47.50;31.70;;;;;;4923786;28;82071;-84
2022/06/23 08:05:15;;;;;;;6.28;5.75;;;47.90;31.10;;;;;;4927529;28;83628;-83
2022/06/23 08:07:42;;;;;;;7.25;6.65;;;47.80;31.30;;;;;;4926100;28;82087;-83
2022/06/23 08:10:13;;;;;;;7.05;6.10;;;48.10;30.00;;;;;;4928228;28;82169;-83
2022/06/23 08:12:53;;;;;;;6.15;5.72;;;48.50;30.30;;;;;;4929569;28;81698;-83
2022/06/23 08:18:26;;;;;;;6.82;6.13;;;49.10;29.80;;;;;;4925935;28;82980;-83
2022/06/23 08:21:00;;;;;;;5.70;5.20;;;49.10;29.10;;;;;;4928078;28;83814;-83
2022/06/23 08:23:28;;;;;;;3.50;3.20;;;46.70;30.30;;;;;;4928170;28;83080;-81
2022/06/23 08:25:54;;;;;;;5.90;5.40;;;46.30;30.90;;;;;;4928239;28;81990;-82
2022/06/23 08:28:20;;;;;;;4.03;2.92;;;45.40;32.30;;;;;;4928289;28;81953;-82
2022/06/23 08:30:47;;;;;;;6.90;6.00;;;45.30;33.00;;;;;;4935203;28;82115;-81
2022/06/23 08:33:13;;;;;;;8.55;5.22;;;46.50;30.60;;;;;;4937819;28;83407;-81
2022/06/23 08:35:48;;;;;;;7.60;4.80;;;45.80;31.10;;;;;;4937139;28;85217;-81
2022/06/23 08:38:32;;;;;;;5.93;5.43;;;45.50;31.80;;;;;;4934706;28;81464;-81
2022/06/23 08:41:20;;;;;;;3.88;1.75;;;43.70;33.20;;;;;;4926457;28;82595;-81
2022/06/23 08:44:05;;;;;;;5.53;5.05;;;43.60;33.80;;;;;;4925141;28;82886;-81
2022/06/23 08:46:56;;;;;;;5.05;2.80;;;45.70;32.30;;;;;;4926142;28;82950;-82
2022/06/23 08:49:30;;;;;;;6.47;5.88;;;47.50;30.00;;;;;;4921101;28;83295;-82
2022/06/23 08:52:11;;;;;;;5.88;5.38;;;48.50;30.60;;;;;;4922779;28;82016;-82
2022/06/23 08:54:40;;;;;;;5.43;4.80;;;46.60;31.30;;;;;;4917259;28;84728;-82
2022/06/23 08:57:41;;;;;;;6.18;5.55;;;47.90;31.60;;;;;;4926625;28;83036;-81
2022/06/23 09:00:20;;;;;;;6.55;5.63;;;48.40;30.00;;;;;;4904182;28;82097;-81
2022/06/23 09:03:11;;;;;;;8.20;5.78;;;46.80;30.90;;;;;;4924797;28;81979;-81
2022/06/23 09:05:36;;;;;;;6.20;4.78;;;45.90;32.00;;;;;;4923176;28;81931;-82
2022/06/23 09:08:14;;;;;;;6.55;3.78;;;44.40;32.80;;;;;;4926022;28;82118;-81
2022/06/23 09:10:45;;;;;;;9.52;5.43;;;43.50;33.40;;;;;;4919207;28;82849;-81
2022/06/23 09:13:44;;;;;;;5.82;4.22;;;42.70;33.70;;;;;;4922062;28;82241;-82
2022/06/23 09:16:26;;;;;;;6.18;4.80;;;45.20;31.20;;;;;;4915744;28;82048;-82
2022/06/23 09:19:23;;;;;;;8.18;5.80;;;47.80;29.90;;;;;;4924423;28;82456;-82
2022/06/23 09:22:19;;;;;;;6.78;5.88;;;49.00;28.90;;;;;;4925514;28;82123;-82
2022/06/23 09:25:16;;;;;;;8.35;7.40;;;50.40;28.80;;;;;;4920544;28;82891;-82
2022/06/23 09:27:45;;;;;;;8.80;7.78;;;51.30;28.30;;;;;;4926785;28;82765;-82
2022/06/23 09:30:38;;;;;;;8.93;8.02;;;52.00;28.00;;;;;;4928620;28;83693;-82
2022/06/23 09:33:27;;;;;;;8.35;7.57;;;52.20;27.60;;;;;;4917661;28;82061;-83
2022/06/23 09:36:19;;;;;;;9.65;8.43;;;52.20;29.80;;;;;;4917951;28;82228;-82
2022/06/23 09:39:03;;;;;;;7.63;7.00;;;51.70;29.90;;;;;;4915838;28;84258;-82
2022/06/23 09:41:51;;;;;;;4.90;3.92;;;50.40;31.20;;;;;;4923568;28;86275;-82
2022/06/23 09:44:39;;;;;;;9.23;8.32;;;49.30;32.40;;;;;;4924599;28;82133;-82
2022/06/23 09:47:34;;;;;;;7.88;7.18;;;49.10;31.80;;;;;;4917702;28;83445;-82
2022/06/23 09:50:07;;;;;;;10.10;8.27;;;48.90;31.40;;;;;;4918088;28;82145;-83
2022/06/23 09:52:44;;;;;;;7.78;6.93;;;48.50;32.00;;;;;;4920925;28;82314;-82
2022/06/23 09:55:13;;;;;;;8.50;7.22;;;48.50;31.00;;;;;;4924639;28;81825;-82
2022/06/23 09:58:06;;;;;;;7.70;6.13;;;47.80;32.90;;;;;;4924127;28;82771;-82
2022/06/23 10:01:04;;;;;;;9.05;8.15;;;47.00;31.90;;;;;;4923285;28;83212;-82
2022/06/23 10:03:54;;;;;;;6.68;4.03;;;46.00;32.60;;;;;;4924305;28;86217;-82
2022/06/23 10:06:51;;;;;;;9.93;6.43;;;46.20;33.40;;;;;;4922330;28;83030;-82
2022/06/23 10:09:35;;;;;;;7.45;6.65;;;46.20;32.90;;;;;;4914898;28;82241;-83
2022/06/23 10:12:28;;;;;;;8.30;6.43;;;45.60;32.20;;;;;;4916830;28;82546;-83
2022/06/23 10:14:54;;;;;;;8.20;6.80;;;42.70;34.50;;;;;;4919625;28;81979;-82
2022/06/23 10:17:47;;;;;;;6.07;2.97;;;40.30;37.70;;;;;;4919350;28;81965;-82
2022/06/23 10:20:13;;;;;;;;;;;38.80;36.30;;;;;;4917670;28;83254;-82
2022/06/23 10:22:58;;;;;;;8.85;6.10;;;37.50;38.40;;;;;;4922078;28;82165;-82
2022/06/23 10:25:29;;;;;;;9.10;3.47;;;36.10;41.00;;;;;;4919006;28;84512;-81
2022/06/23 10:28:07;;;;;;;6.93;3.08;;;34.90;44.30;;;;;;4921709;28;81505;-81
2022/06/23 10:31:10;;;;;;;6.00;2.78;;;34.10;44.30;;;;;;4923585;28;82165;-82
2022/06/23 10:34:09;;;;;;;6.47;3.33;;;33.20;46.10;;;;;;4846209;28;84187;-82
2022/06/23 10:37:12;;;;;;;6.88;2.83;;;32.40;46.90;;;;;;4916786;28;83405;-81
2022/06/23 10:39:57;;;;;;;5.13;2.65;;;31.80;48.90;;;;;;4919710;28;82017;-82
2022/06/23 10:42:44;;;;;;;4.70;2.38;;;31.40;49.30;;;;;;4925030;28;82486;-82
2022/06/23 10:45:22;;;;;;;4.85;2.17;;;30.90;50.70;;;;;;4923401;28;82009;-82
2022/06/23 10:48:18;;;;;;;7.75;1.48;;;31.00;49.20;;;;;;4921590;28;82070;-82
2022/06/23 10:50:50;;;;;;;7.68;2.40;;;31.40;48.20;;;;;;4916575;28;82140;-82
2022/06/23 10:53:44;;;;;;;7.13;2.35;;;31.30;47.90;;;;;;4927960;28;81957;-81
2022/06/23 10:56:30;;;;;;;;;;;31.20;47.90;;;;;;4929294;28;83346;-82
2022/06/23 10:59:41;;;;;;;10.35;2.25;;;31.00;47.70;;;;;;4906540;28;82336;-82
2022/06/23 11:02:38;;;;;;;5.60;2.00;;;31.10;47.70;;;;;;4921329;28;82960;-82
2022/06/23 11:05:22;;;;;;;7.97;2.78;;;30.80;50.40;;;;;;4927726;28;82071;-82
2022/06/23 11:08:02;;;;;;;8.40;2.20;;;30.70;50.20;;;;;;4928548;28;82905;-81
2022/06/23 11:10:38;;;;;;;8.55;2.13;;;30.70;51.40;;;;;;4919297;28;82153;-82
2022/06/23 11:13:29;;;;;;;7.45;2.55;;;30.60;50.20;;;;;;4924969;28;81906;-82
2022/06/23 11:16:22;;;;;;;11.98;1.98;;;30.50;49.10;;;;;;4926908;28;81980;-82
2022/06/23 11:19:25;;;;;;;6.53;2.03;;;30.70;48.90;;;;;;4927698;28;82038;-82
2022/06/23 11:22:33;;;;;;;11.48;2.30;;;30.70;50.80;;;;;;4926694;28;82351;-82
2022/06/23 11:25:17;;;;;;;10.95;2.83;;;30.60;49.70;;;;;;4923601;28;81995;-82
2022/06/23 11:27:42;;;;;;;10.10;2.88;;;30.30;51.10;;;;;;4923053;28;82189;-82
2022/06/23 11:30:18;;;;;;;6.93;2.13;;;30.50;50.10;;;;;;4929057;28;84716;-82
2022/06/23 11:33:03;;;;;;;5.45;1.77;;;30.70;50.00;;;;;;4928572;28;83312;-82
2022/06/23 11:35:37;;;;;;;5.60;1.80;;;30.60;50.50;;;;;;4926753;28;81898;-82
2022/06/23 11:38:36;;;;;;;8.95;2.45;;;30.20;52.20;;;;;;4926558;28;83229;-82
2022/06/23 11:41:24;;;;;;;4.88;1.63;;;30.00;52.70;;;;;;4926387;28;82283;-82
2022/06/23 11:44:18;;;;;;;6.25;1.90;;;29.90;54.50;;;;;;4930267;28;82184;-82
2022/06/23 11:46:58;;;;;;;6.80;2.63;;;30.10;52.80;;;;;;4925580;28;81659;-81
2022/06/23 11:49:30;;;;;;;5.05;1.90;;;30.40;53.00;;;;;;4930373;28;81720;-83
2022/06/23 11:52:10;;;;;;;10.40;2.83;;;30.60;52.80;;;;;;4929005;28;83358;-82
2022/06/23 11:55:14;;;;;;;6.78;2.03;;;30.30;53.70;;;;;;4930838;28;82347;-82
2022/06/23 11:58:03;;;;;;;8.73;1.70;;;30.20;54.80;;;;;;4927991;28;82090;-82
2022/06/23 12:00:40;;;;;;;6.68;1.88;;;30.00;54.80;;;;;;4929421;28;82225;-82
2022/06/23 12:03:05;;;;;;;5.63;1.63;;;30.20;53.30;;;;;;4928382;28;82145;-82
2022/06/23 12:05:52;;;;;;;8.23;1.88;;;30.20;53.10;;;;;;4934205;28;82325;-82
2022/06/23 12:08:50;;;;;;;6.93;2.10;;;30.00;54.10;;;;;;4929073;28;82054;-81
2022/06/23 12:11:16;;;;;;;8.25;2.40;;;29.90;55.30;;;;;;4857952;28;81991;-82
2022/06/23 12:13:42;;;;;;;5.88;1.77;;;30.10;54.30;;;;;;4928125;28;83722;-82
2022/06/23 12:16:08;;;;;;;7.22;2.05;;;30.40;54.30;;;;;;4930612;28;82862;-82
2022/06/23 12:18:49;;;;;;;9.82;1.80;;;30.50;53.20;;;;;;4928771;28;82404;-82
2022/06/23 12:21:42;;;;;;;5.30;2.05;;;30.20;56.30;;;;;;4929729;28;82485;-82
2022/06/23 12:24:45;;;;;;;8.57;1.50;;;30.30;56.10;;;;;;4925582;28;83450;-82
2022/06/23 12:27:32;;;;;;;6.65;1.75;;;30.20;53.80;;;;;;4895175;28;82945;-82
2022/06/23 12:30:07;;;;;;;6.25;1.85;;;30.20;56.70;;;;;;4925375;28;82005;-82
2022/06/23 12:32:35;;;;;;;6.72;2.25;;;30.40;55.80;;;;;;4928366;28;82083;-82
2022/06/23 12:35:10;;;;;;;4.15;1.20;;;30.60;55.20;;;;;;4929456;28;81952;-82
2022/06/23 12:37:42;;;;;;;7.97;1.75;;;30.60;54.20;;;;;;4929842;28;82419;-82
2022/06/23 12:40:11;;;;;;;6.95;1.88;;;30.40;55.10;;;;;;4928948;28;81986;-82
2022/06/23 12:42:52;;;;;;;6.20;1.98;;;30.40;54.40;;;;;;4929404;28;83654;-82
2022/06/23 12:45:32;;;;;;;4.57;1.00;;;30.10;54.70;;;;;;4927897;28;82672;-82
2022/06/23 12:47:58;;;;;;;4.68;1.98;;;30.30;55.90;;;;;;4928171;28;83087;-82
2022/06/23 12:50:45;;;;;;;5.30;1.85;;;30.30;55.80;;;;;;4928654;28;82888;-82
2022/06/23 12:53:19;;;;;;;6.18;1.60;;;30.40;55.20;;;;;;4928592;28;83927;-82
2022/06/23 12:56:03;;;;;;;7.10;2.00;;;30.30;55.30;;;;;;4929488;28;82641;-81
2022/06/23 12:58:47;;;;;;;5.47;1.30;;;30.30;55.30;;;;;;4928389;28;81911;-82
2022/06/23 13:01:37;;;;;;;7.50;2.05;;;30.30;53.80;;;;;;4927406;28;82780;-82
2022/06/23 13:04:12;;;;;;;6.93;1.92;;;30.30;53.80;;;;;;4927643;28;84080;-82
2022/06/23 13:06:37;;;;;;;6.47;2.38;;;30.10;54.20;;;;;;4929154;28;82606;-82
2022/06/23 13:09:17;;;;;;;7.13;1.35;;;29.80;56.10;;;;;;4928558;28;82441;-82
2022/06/23 13:12:06;;;;;;;7.43;2.20;;;29.90;56.90;;;;;;4929296;28;82066;-82
2022/06/23 13:14:46;;;;;;;5.60;2.08;;;30.20;54.10;;;;;;4927878;28;83644;-82
2022/06/23 13:17:33;;;;;;;9.52;1.95;;;30.30;53.70;;;;;;4927823;28;83545;-82
2022/06/23 13:20:30;;;;;;;9.32;0.70;;;30.20;55.40;;;;;;4919737;28;82108;-81
2022/06/23 13:23:02;;;;;;;8.20;1.85;;;29.70;54.90;;;;;;4917052;28;81812;-82
2022/06/23 13:25:33;;;;;;;7.43;1.88;;;29.80;54.50;;;;;;4926893;28;82010;-81
2022/06/23 13:28:00;;;;;;;11.55;2.20;;;30.20;54.00;;;;;;4927629;28;82543;-82
2022/06/23 13:30:33;;;;;;;10.50;2.00;;;30.20;54.80;;;;;;4927754;28;82039;-81
2022/06/23 13:33:09;;;;;;;6.80;1.90;;;30.30;55.20;;;;;;4924876;28;81834;-81
2022/06/23 13:35:53;;;;;;;5.15;1.42;;;29.90;52.50;;;;;;4928069;28;82215;-81
2022/06/23 13:38:27;;;;;;;8.90;2.17;;;30.00;54.50;;;;;;4925291;28;82522;-82
2022/06/23 13:41:08;;;;;;;8.25;1.75;;;30.00;55.40;;;;;;4927586;28;81979;-82
2022/06/23 13:43:44;;;;;;;5.43;1.90;;;30.00;54.50;;;;;;4927879;28;82781;-82
2022/06/23 13:46:39;;;;;;;6.22;1.50;;;30.20;54.80;;;;;;4928245;28;83072;-81
2022/06/23 13:49:16;;;;;;;5.63;1.65;;;30.30;54.10;;;;;;4932547;28;82696;-80
2022/06/23 13:51:58;;;;;;;7.28;1.88;;;30.40;54.10;;;;;;4931389;28;84053;-80
2022/06/23 13:54:39;;;;;;;8.90;2.10;;;30.30;55.10;;;;;;4931617;28;81567;-81
2022/06/23 13:57:07;;;;;;;6.72;1.80;;;30.20;54.40;;;;;;4925396;28;82366;-81
2022/06/23 13:59:55;;;;;;;8.00;1.65;;;30.10;55.30;;;;;;4926726;28;82712;-81
2022/06/23 14:02:32;;;;;;;9.38;1.88;;;30.10;54.50;;;;;;4922773;28;82109;-81
2022/06/23 14:05:12;;;;;;;4.10;1.45;;;30.00;55.10;;;;;;4928245;28;82579;-81
2022/06/23 14:07:46;;;;;;;11.75;2.42;;;30.10;55.20;;;;;;4925771;28;82338;-81
2022/06/23 14:10:14;;;;;;;6.47;2.05;;;30.20;53.80;;;;;;4925410;28;84601;-81
2022/06/23 14:12:48;;;;;;;7.60;0.88;;;30.30;54.60;;;;;;4926288;28;83303;-81
2022/06/23 14:15:28;;;;;;;9.30;1.98;;;30.30;55.90;;;;;;4919195;28;82109;-81
2022/06/23 14:18:19;;;;;;;6.43;1.98;;;30.30;54.20;;;;;;4926678;28;84255;-81
2022/06/23 14:21:33;;;;;;;7.43;1.75;;;30.40;53.40;;;;;;4925725;28;84979;-81
2022/06/23 14:24:17;;;;;;;6.20;2.10;;;30.40;54.40;;;;;;4832573;29;82245;-81
2022/06/23 14:26:45;;;;;;;4.95;1.90;;;30.30;53.10;;;;;;4832135;29;81977;-81
2022/06/23 14:29:37;;;;;;;5.60;1.98;;;30.40;54.10;;;;;;4889504;28;81930;-81
2022/06/23 14:32:11;;;;;;;8.55;1.67;;;30.60;54.40;;;;;;4915995;28;83229;-81
2022/06/23 14:34:44;;;;;;;8.20;1.60;;;30.70;54.10;;;;;;4925319;28;82027;-81
2022/06/23 14:37:12;;;;;;;6.55;2.15;;;30.70;54.10;;;;;;4916715;28;82979;-81
2022/06/23 14:39:43;;;;;;;;;;;30.60;52.60;;;;;;4921323;28;82023;-81
2022/06/23 14:42:36;;;;;;;7.80;1.92;;;30.70;52.30;;;;;;4918340;28;82516;-81
2022/06/23 14:45:14;;;;;;;6.57;1.08;;;30.60;54.10;;;;;;4923715;28;81876;-81
2022/06/23 14:48:23;;;;;;;8.27;2.13;;;31.00;54.30;;;;;;4923699;28;82135;-81
2022/06/23 14:50:56;;;;;;;9.35;2.95;;;31.20;52.70;;;;;;4921982;28;81976;-81
2022/06/23 14:53:48;;;;;;;5.75;2.42;;;31.20;53.90;;;;;;4926357;28;82241;-81
2022/06/23 14:56:52;;;;;;;9.20;1.92;;;31.20;52.80;;;;;;4920008;28;81906;-81
2022/06/23 14:59:53;;;;;;;6.60;1.88;;;31.10;51.90;;;;;;4918397;28;82455;-81
2022/06/23 15:02:29;;;;;;;6.97;2.35;;;30.90;54.40;;;;;;4889159;28;82637;-82
2022/06/23 15:05:08;;;;;;;6.50;1.42;;;31.20;52.00;;;;;;4925235;28;83440;-82
2022/06/23 15:07:37;;;;;;;8.10;2.15;;;31.10;51.90;;;;;;4922720;28;83330;-82
2022/06/23 15:10:10;;;;;;;;;;;31.10;53.10;;;;;;4920513;28;81948;-81
2022/06/23 15:12:39;;;;;;;12.68;2.28;;;30.70;53.80;;;;;;4923697;28;82441;-82
2022/06/23 15:15:34;;;;;;;6.10;1.85;;;30.40;53.60;;;;;;4921237;28;82748;-82
2022/06/23 15:18:18;;;;;;;4.38;1.30;;;30.50;53.30;;;;;;4921923;28;82132;-82
2022/06/23 15:20:48;;;;;;;10.52;2.13;;;30.40;53.90;;;;;;4923873;28;82054;-82
2022/06/23 15:23:55;;;;;;;5.68;1.73;;;30.60;54.10;;;;;;4925602;28;81585;-82
2022/06/23 15:26:26;;;;;;;7.15;1.33;;;30.60;53.80;;;;;;4897760;28;82779;-82
2022/06/23 15:29:07;;;;;;;5.30;2.00;;;30.70;53.70;;;;;;4911084;28;84589;-82
2022/06/23 15:31:45;;;;;;;4.70;1.63;;;30.70;52.20;;;;;;4925999;28;83183;-82
2022/06/23 15:34:36;;;;;;;7.95;1.70;;;30.80;52.60;;;;;;4926411;28;81777;-82
2022/06/23 15:37:32;;;;;;;8.23;1.83;;;30.90;52.40;;;;;;4889029;28;82368;-82
2022/06/23 15:40:20;;;;;;;5.00;1.00;;;31.10;52.70;;;;;;4925687;28;82875;-82
2022/06/23 15:42:49;;;;;;;5.25;1.67;;;31.40;51.70;;;;;;4929873;28;82347;-82
2022/06/23 15:45:20;;;;;;;7.13;1.48;;;31.40;52.50;;;;;;4929829;28;82043;-82
2022/06/23 15:47:59;;;;;;;12.48;2.15;;;31.40;51.10;;;;;;4929586;28;87008;-82
2022/06/23 15:50:49;;;;;;;7.10;0.77;;;31.60;50.30;;;;;;4923359;28;88287;-82
2022/06/23 15:53:28;;;;;;;10.00;2.67;;;31.50;51.50;;;;;;4926844;28;86887;-82
2022/06/23 15:56:07;;;;;;;5.60;1.83;;;31.70;51.50;;;;;;4921351;28;86957;-82
2022/06/23 15:59:06;;;;;;;7.35;2.13;;;31.70;50.50;;;;;;4922089;28;88659;-82
2022/06/23 16:01:38;;;;;;;3.88;1.35;;;31.60;50.40;;;;;;4921997;28;89330;-82
2022/06/23 16:04:20;;;;;;;9.80;1.85;;;31.70;51.10;;;;;;4921288;28;87140;-82
2022/06/23 16:06:49;;;;;;;5.05;1.00;;;31.50;50.40;;;;;;4916395;28;86968;-82
2022/06/23 16:09:45;;;;;;;6.60;1.88;;;31.30;52.10;;;;;;4924613;28;87977;-82
2022/06/23 16:12:29;;;;;;;5.40;0.88;;;31.00;49.90;;;;;;4923390;28;87937;-82
2022/06/23 16:15:03;;;;;;;6.93;1.75;;;30.90;51.50;;;;;;4923930;28;86984;-82
2022/06/23 16:17:37;;;;;;;9.00;2.25;;;30.60;51.60;;;;;;4927485;28;86192;-82
2022/06/23 16:20:07;;;;;;;8.50;2.08;;;30.60;52.10;;;;;;4929148;28;87288;-82
2022/06/23 16:22:33;;;;;;;5.82;1.98;;;30.60;50.70;;;;;;4926224;28;88483;-82
2022/06/23 16:25:21;;;;;;;6.10;2.00;;;30.60;51.30;;;;;;4925306;28;89477;-82
2022/06/23 16:28:18;;;;;;;8.95;2.25;;;30.80;51.60;;;;;;4926760;28;87138;-82
2022/06/23 16:30:50;;;;;;;8.18;2.10;;;30.70;51.00;;;;;;4922101;28;86929;-82
2022/06/23 16:33:32;;;;;;;9.38;1.67;;;30.40;52.40;;;;;;4925644;28;89053;-82
2022/06/23 16:36:09;;;;;;;4.22;1.48;;;30.40;52.40;;;;;;4919209;28;87134;-82
2022/06/23 16:38:47;;;;;;;6.82;2.17;;;30.40;51.20;;;;;;4925720;28;86900;-82
2022/06/23 16:41:38;;;;;;;6.43;1.23;;;30.30;51.00;;;;;;4926630;28;89684;-82
2022/06/23 16:44:14;;;;;;;7.68;1.88;;;30.10;51.30;;;;;;4878603;28;87118;-82
2022/06/23 16:47:02;;;;;;;5.00;1.73;;;30.20;51.50;;;;;;4925805;28;87055;-82
2022/06/23 16:49:34;;;;;;;6.03;1.40;;;30.20;51.90;;;;;;4926184;28;86580;-82
2022/06/23 16:52:18;;;;;;;6.90;1.38;;;30.30;52.20;;;;;;4925138;28;90403;-82
2022/06/23 16:54:56;;;;;;;9.85;1.35;;;30.20;53.20;;;;;;4927720;28;88033;-82